TimeEST,TemperatureF,Dew PointF,Humidity,Sea Level PressureIn,VisibilityMPH,Wind Direction,Wind SpeedMPH,Gust SpeedMPH,PrecipitationIn,Events,Conditions,WindDirDegrees,DateUTC
12:53 AM,35.1,28.9,78,30.08,8.0,WNW,5.8,-,N/A,,Clear,300,2013-02-06 05:53:00
1:53 AM,37.0,30.0,76,30.09,8.0,NW,5.8,-,N/A,,Clear,320,2013-02-06 06:53:00
2:53 AM,37.0,30.0,76,30.12,7.0,Calm,Calm,-,N/A,,Clear,0,2013-02-06 07:53:00
3:53 AM,34.0,30.0,85,30.14,5.0,WNW,5.8,-,N/A,,Clear,300,2013-02-06 08:53:00
4:53 AM,30.9,26.1,82,30.16,5.0,Calm,Calm,-,N/A,,Haze,0,2013-02-06 09:53:00
5:53 AM,30.9,28.0,89,30.17,5.0,NW,4.6,-,N/A,,Clear,310,2013-02-06 10:53:00
6:53 AM,28.0,26.1,92,30.20,4.0,Calm,Calm,-,N/A,,Clear,0,2013-02-06 11:53:00
7:53 AM,28.0,26.1,92,30.22,6.0,Calm,Calm,-,N/A,,Clear,0,2013-02-06 12:53:00
8:00 AM,26.6,24.8,93,30.22,6.0,SW,3.5,-,N/A,,Clear,220,2013-02-06 13:00:00
8:37 AM,30.2,28.4,93,30.23,6.0,Calm,Calm,-,N/A,,Mostly Cloudy,0,2013-02-06 13:37:00
8:53 AM,32.0,28.9,88,30.25,6.0,Calm,Calm,-,N/A,,Overcast,0,2013-02-06 13:53:00
9:53 AM,35.1,28.9,78,30.26,5.0,NE,4.6,-,N/A,,Haze,40,2013-02-06 14:53:00
10:01 AM,35.6,28.4,75,30.25,6.0,NNE,3.5,-,N/A,,Haze,30,2013-02-06 15:01:00
10:53 AM,36.0,28.9,76,30.27,6.0,NE,4.6,-,N/A,,Haze,50,2013-02-06 15:53:00
11:53 AM,37.9,28.9,70,30.29,7.0,Calm,Calm,-,N/A,,Overcast,0,2013-02-06 16:53:00
12:53 PM,39.0,28.9,67,30.27,8.0,ENE,3.5,-,N/A,,Overcast,70,2013-02-06 17:53:00
1:53 PM,39.9,28.9,65,30.26,8.0,Calm,Calm,-,N/A,,Overcast,0,2013-02-06 18:53:00
2:53 PM,41.0,28.9,62,30.26,9.0,WSW,3.5,-,N/A,,Overcast,240,2013-02-06 19:53:00
3:34 PM,42.8,28.4,57,30.24,9.0,Calm,Calm,-,N/A,,Partly Cloudy,0,2013-02-06 20:34:00
3:53 PM,43.0,28.0,56,30.25,9.0,Calm,Calm,-,N/A,,Clear,0,2013-02-06 20:53:00
4:53 PM,43.0,28.0,56,30.23,9.0,Variable,3.5,-,N/A,,Clear,0,2013-02-06 21:53:00
5:53 PM,41.0,28.9,62,30.22,9.0,NNE,4.6,-,N/A,,Clear,20,2013-02-06 22:53:00
6:53 PM,39.0,28.9,67,30.22,9.0,NNE,6.9,-,N/A,,Clear,30,2013-02-06 23:53:00
7:53 PM,37.0,28.0,70,30.25,9.0,Calm,Calm,-,N/A,,Clear,0,2013-02-07 00:53:00
8:53 PM,37.0,28.0,70,30.23,8.0,NNE,3.5,-,N/A,,Clear,30,2013-02-07 01:53:00
9:53 PM,37.0,28.0,70,30.22,8.0,ENE,5.8,-,N/A,,Clear,70,2013-02-07 02:53:00
10:53 PM,37.0,28.0,70,30.22,9.0,East,3.5,-,N/A,,Clear,80,2013-02-07 03:53:00
11:53 PM,37.0,28.0,70,30.21,10.0,Calm,Calm,-,N/A,,Clear,0,2013-02-07 04:53:00